sensor_id;sensor_type;location;lat;lon;timestamp;P1;durP1;ratioP1;P2;durP2;ratioP2
5014;SDS011;2526;51.060;4.228;2023-03-23T00:00:22;5.80;;;3.28;;
5014;SDS011;2526;51.060;4.228;2023-03-23T00:02:48;7.28;;;2.38;;
5014;SDS011;2526;51.060;4.228;2023-03-23T00:05:13;5.22;;;2.45;;
5014;SDS011;2526;51.060;4.228;2023-03-23T00:07:39;5.25;;;2.88;;
5014;SDS011;2526;51.060;4.228;2023-03-23T00:10:10;3.38;;;1.92;;
5014;SDS011;2526;51.060;4.228;2023-03-23T00:12:36;3.92;;;2.40;;
5014;SDS011;2526;51.060;4.228;2023-03-23T00:15:06;3.50;;;1.98;;
5014;SDS011;2526;51.060;4.228;2023-03-23T00:17:33;4.32;;;2.85;;
5014;SDS011;2526;51.060;4.228;2023-03-23T00:19:59;3.90;;;2.00;;
5014;SDS011;2526;51.060;4.228;2023-03-23T00:22:26;6.75;;;2.88;;
5014;SDS011;2526;51.060;4.228;2023-03-23T00:24:52;4.80;;;2.63;;
5014;SDS011;2526;51.060;4.228;2023-03-23T00:27:18;5.07;;;2.88;;
5014;SDS011;2526;51.060;4.228;2023-03-23T00:29:43;6.55;;;2.35;;
5014;SDS011;2526;51.060;4.228;2023-03-23T00:32:10;4.45;;;2.40;;
5014;SDS011;2526;51.060;4.228;2023-03-23T00:34:39;3.08;;;2.58;;
5014;SDS011;2526;51.060;4.228;2023-03-23T00:37:05;2.30;;;1.98;;
5014;SDS011;2526;51.060;4.228;2023-03-23T00:39:31;3.25;;;2.63;;
5014;SDS011;2526;51.060;4.228;2023-03-23T00:41:56;3.75;;;2.72;;
5014;SDS011;2526;51.060;4.228;2023-03-23T00:44:29;4.63;;;1.98;;
5014;SDS011;2526;51.060;4.228;2023-03-23T00:46:55;2.38;;;2.15;;
5014;SDS011;2526;51.060;4.228;2023-03-23T00:49:22;2.50;;;1.80;;
5014;SDS011;2526;51.060;4.228;2023-03-23T00:51:50;4.15;;;2.83;;
5014;SDS011;2526;51.060;4.228;2023-03-23T00:54:16;4.40;;;2.17;;
5014;SDS011;2526;51.060;4.228;2023-03-23T00:56:41;5.13;;;2.63;;
5014;SDS011;2526;51.060;4.228;2023-03-23T00:59:07;7.07;;;2.17;;
5014;SDS011;2526;51.060;4.228;2023-03-23T01:01:32;5.57;;;2.40;;
5014;SDS011;2526;51.060;4.228;2023-03-23T01:03:58;4.00;;;2.03;;
5014;SDS011;2526;51.060;4.228;2023-03-23T01:06:26;7.25;;;2.45;;
5014;SDS011;2526;51.060;4.228;2023-03-23T01:08:52;2.47;;;2.03;;
5014;SDS011;2526;51.060;4.228;2023-03-23T01:11:19;3.80;;;2.28;;
5014;SDS011;2526;51.060;4.228;2023-03-23T01:13:44;5.28;;;2.58;;
5014;SDS011;2526;51.060;4.228;2023-03-23T01:16:10;4.78;;;3.35;;
5014;SDS011;2526;51.060;4.228;2023-03-23T01:18:36;3.25;;;2.05;;
5014;SDS011;2526;51.060;4.228;2023-03-23T01:21:12;4.30;;;2.20;;
5014;SDS011;2526;51.060;4.228;2023-03-23T01:23:38;2.60;;;1.88;;
5014;SDS011;2526;51.060;4.228;2023-03-23T01:26:05;3.33;;;1.70;;
5014;SDS011;2526;51.060;4.228;2023-03-23T01:28:33;3.10;;;2.80;;
5014;SDS011;2526;51.060;4.228;2023-03-23T01:31:02;3.95;;;1.65;;
5014;SDS011;2526;51.060;4.228;2023-03-23T01:33:28;2.58;;;1.58;;
5014;SDS011;2526;51.060;4.228;2023-03-23T01:35:53;3.40;;;2.72;;
5014;SDS011;2526;51.060;4.228;2023-03-23T01:38:19;2.72;;;1.70;;
5014;SDS011;2526;51.060;4.228;2023-03-23T01:40:44;5.78;;;1.77;;
5014;SDS011;2526;51.060;4.228;2023-03-23T01:43:11;4.53;;;1.92;;
5014;SDS011;2526;51.060;4.228;2023-03-23T01:45:38;3.20;;;2.00;;
5014;SDS011;2526;51.060;4.228;2023-03-23T01:48:09;2.03;;;1.80;;
5014;SDS011;2526;51.060;4.228;2023-03-23T01:50:42;8.63;;;1.83;;
5014;SDS011;2526;51.060;4.228;2023-03-23T01:53:09;2.03;;;1.63;;
5014;SDS011;2526;51.060;4.228;2023-03-23T01:55:37;3.53;;;1.50;;
5014;SDS011;2526;51.060;4.228;2023-03-23T01:58:04;5.07;;;2.17;;
5014;SDS011;2526;51.060;4.228;2023-03-23T02:00:29;2.88;;;1.52;;
5014;SDS011;2526;51.060;4.228;2023-03-23T02:02:55;2.80;;;1.58;;
5014;SDS011;2526;51.060;4.228;2023-03-23T02:05:26;3.78;;;2.83;;
5014;SDS011;2526;51.060;4.228;2023-03-23T02:07:53;2.63;;;1.83;;
5014;SDS011;2526;51.060;4.228;2023-03-23T02:10:19;2.33;;;1.55;;
5014;SDS011;2526;51.060;4.228;2023-03-23T02:12:45;1.25;;;0.82;;
5014;SDS011;2526;51.060;4.228;2023-03-23T02:15:10;2.88;;;1.42;;
5014;SDS011;2526;51.060;4.228;2023-03-23T02:17:42;3.05;;;1.58;;
5014;SDS011;2526;51.060;4.228;2023-03-23T02:20:25;2.35;;;1.52;;
5014;SDS011;2526;51.060;4.228;2023-03-23T02:22:59;1.83;;;1.45;;
5014;SDS011;2526;51.060;4.228;2023-03-23T02:28:11;1.67;;;1.13;;
5014;SDS011;2526;51.060;4.228;2023-03-23T02:38:40;1.90;;;0.85;;
5014;SDS011;2526;51.060;4.228;2023-03-23T02:41:08;5.43;;;1.40;;
5014;SDS011;2526;51.060;4.228;2023-03-23T02:43:38;3.97;;;1.55;;
5014;SDS011;2526;51.060;4.228;2023-03-23T02:46:05;1.65;;;1.25;;
5014;SDS011;2526;51.060;4.228;2023-03-23T02:48:31;8.30;;;1.17;;
5014;SDS011;2526;51.060;4.228;2023-03-23T02:50:57;2.10;;;1.00;;
5014;SDS011;2526;51.060;4.228;2023-03-23T02:53:25;1.15;;;0.80;;
5014;SDS011;2526;51.060;4.228;2023-03-23T02:55:52;1.50;;;1.10;;
5014;SDS011;2526;51.060;4.228;2023-03-23T02:58:18;2.72;;;0.88;;
5014;SDS011;2526;51.060;4.228;2023-03-23T03:00:44;1.65;;;0.95;;
5014;SDS011;2526;51.060;4.228;2023-03-23T03:03:12;5.93;;;1.40;;
5014;SDS011;2526;51.060;4.228;2023-03-23T03:06:25;3.13;;;0.82;;
5014;SDS011;2526;51.060;4.228;2023-03-23T03:08:40;4.63;;;1.60;;
5014;SDS011;2526;51.060;4.228;2023-03-23T03:11:11;4.75;;;0.93;;
5014;SDS011;2526;51.060;4.228;2023-03-23T03:16:08;6.43;;;1.42;;
5014;SDS011;2526;51.060;4.228;2023-03-23T03:18:46;2.33;;;0.90;;
5014;SDS011;2526;51.060;4.228;2023-03-23T03:21:13;1.17;;;0.80;;
5014;SDS011;2526;51.060;4.228;2023-03-23T03:23:40;1.42;;;1.08;;
5014;SDS011;2526;51.060;4.228;2023-03-23T03:26:07;1.30;;;1.02;;
5014;SDS011;2526;51.060;4.228;2023-03-23T03:28:34;5.78;;;1.27;;
5014;SDS011;2526;51.060;4.228;2023-03-23T03:31:02;2.53;;;0.85;;
5014;SDS011;2526;51.060;4.228;2023-03-23T03:33:28;2.78;;;0.80;;
5014;SDS011;2526;51.060;4.228;2023-03-23T03:35:56;3.88;;;1.02;;
5014;SDS011;2526;51.060;4.228;2023-03-23T03:38:22;2.03;;;0.95;;
5014;SDS011;2526;51.060;4.228;2023-03-23T03:40:48;7.05;;;1.15;;
5014;SDS011;2526;51.060;4.228;2023-03-23T03:43:13;2.05;;;1.40;;
5014;SDS011;2526;51.060;4.228;2023-03-23T03:45:39;3.70;;;0.90;;
5014;SDS011;2526;51.060;4.228;2023-03-23T03:48:06;1.42;;;1.05;;
5014;SDS011;2526;51.060;4.228;2023-03-23T03:50:32;0.55;;;0.50;;
5014;SDS011;2526;51.060;4.228;2023-03-23T03:52:57;2.22;;;1.15;;
5014;SDS011;2526;51.060;4.228;2023-03-23T03:55:23;6.00;;;1.13;;
5014;SDS011;2526;51.060;4.228;2023-03-23T03:57:49;2.47;;;0.52;;
5014;SDS011;2526;51.060;4.228;2023-03-23T04:00:14;1.77;;;0.63;;
5014;SDS011;2526;51.060;4.228;2023-03-23T04:02:41;1.77;;;0.80;;
5014;SDS011;2526;51.060;4.228;2023-03-23T04:05:07;3.80;;;0.60;;
5014;SDS011;2526;51.060;4.228;2023-03-23T04:07:34;4.13;;;1.85;;
5014;SDS011;2526;51.060;4.228;2023-03-23T04:10:04;0.80;;;0.77;;
5014;SDS011;2526;51.060;4.228;2023-03-23T04:12:30;1.52;;;1.42;;
5014;SDS011;2526;51.060;4.228;2023-03-23T04:14:56;2.33;;;1.10;;
5014;SDS011;2526;51.060;4.228;2023-03-23T04:17:22;1.23;;;0.60;;
5014;SDS011;2526;51.060;4.228;2023-03-23T04:19:47;3.00;;;1.30;;
5014;SDS011;2526;51.060;4.228;2023-03-23T04:22:13;1.73;;;1.05;;
5014;SDS011;2526;51.060;4.228;2023-03-23T04:24:38;5.00;;;1.33;;
5014;SDS011;2526;51.060;4.228;2023-03-23T04:27:04;2.15;;;1.13;;
5014;SDS011;2526;51.060;4.228;2023-03-23T04:29:30;5.07;;;1.30;;
5014;SDS011;2526;51.060;4.228;2023-03-23T04:31:55;1.60;;;0.80;;
5014;SDS011;2526;51.060;4.228;2023-03-23T04:34:21;1.42;;;1.10;;
5014;SDS011;2526;51.060;4.228;2023-03-23T04:36:47;0.30;;;0.30;;
5014;SDS011;2526;51.060;4.228;2023-03-23T04:39:13;7.60;;;1.10;;
5014;SDS011;2526;51.060;4.228;2023-03-23T04:41:39;3.60;;;1.00;;
5014;SDS011;2526;51.060;4.228;2023-03-23T04:44:05;6.18;;;1.40;;
5014;SDS011;2526;51.060;4.228;2023-03-23T04:46:31;11.23;;;1.73;;
5014;SDS011;2526;51.060;4.228;2023-03-23T04:48:58;5.95;;;2.00;;
5014;SDS011;2526;51.060;4.228;2023-03-23T04:51:30;1.88;;;1.17;;
5014;SDS011;2526;51.060;4.228;2023-03-23T04:53:57;6.40;;;1.85;;
5014;SDS011;2526;51.060;4.228;2023-03-23T04:56:23;1.40;;;1.10;;
5014;SDS011;2526;51.060;4.228;2023-03-23T04:58:48;2.28;;;1.00;;
5014;SDS011;2526;51.060;4.228;2023-03-23T05:01:14;2.58;;;0.95;;
5014;SDS011;2526;51.060;4.228;2023-03-23T05:03:40;1.65;;;1.55;;
5014;SDS011;2526;51.060;4.228;2023-03-23T05:06:06;10.30;;;0.90;;
5014;SDS011;2526;51.060;4.228;2023-03-23T05:08:31;11.48;;;2.00;;
5014;SDS011;2526;51.060;4.228;2023-03-23T05:10:58;14.38;;;1.92;;
5014;SDS011;2526;51.060;4.228;2023-03-23T05:13:24;4.15;;;1.17;;
5014;SDS011;2526;51.060;4.228;2023-03-23T05:15:49;6.38;;;0.90;;
5014;SDS011;2526;51.060;4.228;2023-03-23T05:18:15;3.03;;;0.80;;
5014;SDS011;2526;51.060;4.228;2023-03-23T05:20:41;3.42;;;2.00;;
5014;SDS011;2526;51.060;4.228;2023-03-23T05:23:07;4.13;;;1.00;;
5014;SDS011;2526;51.060;4.228;2023-03-23T05:25:33;6.25;;;2.08;;
5014;SDS011;2526;51.060;4.228;2023-03-23T05:28:02;7.10;;;1.02;;
5014;SDS011;2526;51.060;4.228;2023-03-23T05:30:27;4.90;;;1.42;;
5014;SDS011;2526;51.060;4.228;2023-03-23T05:32:55;2.75;;;0.95;;
5014;SDS011;2526;51.060;4.228;2023-03-23T05:35:20;6.00;;;1.30;;
5014;SDS011;2526;51.060;4.228;2023-03-23T05:37:46;1.50;;;0.73;;
5014;SDS011;2526;51.060;4.228;2023-03-23T05:40:12;3.35;;;0.70;;
5014;SDS011;2526;51.060;4.228;2023-03-23T05:42:38;6.28;;;1.60;;
5014;SDS011;2526;51.060;4.228;2023-03-23T05:45:05;2.95;;;0.70;;
5014;SDS011;2526;51.060;4.228;2023-03-23T05:47:31;3.70;;;0.60;;
5014;SDS011;2526;51.060;4.228;2023-03-23T05:49:57;7.78;;;0.73;;
5014;SDS011;2526;51.060;4.228;2023-03-23T05:52:23;4.07;;;1.85;;
5014;SDS011;2526;51.060;4.228;2023-03-23T05:54:52;4.45;;;1.85;;
5014;SDS011;2526;51.060;4.228;2023-03-23T05:57:18;4.82;;;1.25;;
5014;SDS011;2526;51.060;4.228;2023-03-23T05:59:44;2.45;;;0.60;;
5014;SDS011;2526;51.060;4.228;2023-03-23T06:02:10;2.97;;;1.30;;
5014;SDS011;2526;51.060;4.228;2023-03-23T06:04:35;2.40;;;1.05;;
5014;SDS011;2526;51.060;4.228;2023-03-23T06:07:03;2.60;;;1.77;;
5014;SDS011;2526;51.060;4.228;2023-03-23T06:09:28;2.25;;;0.73;;
5014;SDS011;2526;51.060;4.228;2023-03-23T06:11:55;1.27;;;0.88;;
5014;SDS011;2526;51.060;4.228;2023-03-23T06:14:20;4.03;;;0.70;;
5014;SDS011;2526;51.060;4.228;2023-03-23T06:16:46;8.25;;;2.38;;
5014;SDS011;2526;51.060;4.228;2023-03-23T06:19:12;1.60;;;0.75;;
5014;SDS011;2526;51.060;4.228;2023-03-23T06:21:38;3.17;;;1.10;;
5014;SDS011;2526;51.060;4.228;2023-03-23T06:24:04;0.60;;;0.40;;
5014;SDS011;2526;51.060;4.228;2023-03-23T06:26:30;1.13;;;0.57;;
5014;SDS011;2526;51.060;4.228;2023-03-23T06:28:57;2.35;;;0.98;;
5014;SDS011;2526;51.060;4.228;2023-03-23T06:31:24;4.40;;;0.28;;
5014;SDS011;2526;51.060;4.228;2023-03-23T06:33:50;0.68;;;0.38;;
5014;SDS011;2526;51.060;4.228;2023-03-23T06:36:16;1.15;;;0.28;;
5014;SDS011;2526;51.060;4.228;2023-03-23T06:38:42;1.60;;;0.55;;
5014;SDS011;2526;51.060;4.228;2023-03-23T06:41:07;0.50;;;0.50;;
5014;SDS011;2526;51.060;4.228;2023-03-23T06:43:34;3.58;;;0.55;;
5014;SDS011;2526;51.060;4.228;2023-03-23T06:46:01;0.90;;;0.30;;
5014;SDS011;2526;51.060;4.228;2023-03-23T06:48:26;7.63;;;0.52;;
5014;SDS011;2526;51.060;4.228;2023-03-23T06:50:52;2.10;;;0.82;;
5014;SDS011;2526;51.060;4.228;2023-03-23T06:53:18;0.60;;;0.40;;
5014;SDS011;2526;51.060;4.228;2023-03-23T06:55:45;0.47;;;0.38;;
5014;SDS011;2526;51.060;4.228;2023-03-23T06:58:12;0.77;;;0.50;;
5014;SDS011;2526;51.060;4.228;2023-03-23T07:00:38;0.95;;;0.32;;
5014;SDS011;2526;51.060;4.228;2023-03-23T07:03:05;0.28;;;0.28;;
5014;SDS011;2526;51.060;4.228;2023-03-23T07:05:30;0.85;;;0.60;;
5014;SDS011;2526;51.060;4.228;2023-03-23T07:07:57;1.23;;;0.70;;
5014;SDS011;2526;51.060;4.228;2023-03-23T07:10:22;5.85;;;1.20;;
5014;SDS011;2526;51.060;4.228;2023-03-23T07:12:48;0.60;;;0.30;;
5014;SDS011;2526;51.060;4.228;2023-03-23T07:15:15;3.80;;;0.70;;
5014;SDS011;2526;51.060;4.228;2023-03-23T07:17:40;1.92;;;0.55;;
5014;SDS011;2526;51.060;4.228;2023-03-23T07:20:07;4.47;;;0.73;;
5014;SDS011;2526;51.060;4.228;2023-03-23T07:22:33;2.40;;;0.32;;
5014;SDS011;2526;51.060;4.228;2023-03-23T07:24:58;3.95;;;0.57;;
5014;SDS011;2526;51.060;4.228;2023-03-23T07:27:24;1.08;;;0.30;;
5014;SDS011;2526;51.060;4.228;2023-03-23T07:29:50;7.75;;;1.38;;
5014;SDS011;2526;51.060;4.228;2023-03-23T07:32:16;0.03;;;0.03;;
5014;SDS011;2526;51.060;4.228;2023-03-23T07:34:42;2.22;;;0.88;;
5014;SDS011;2526;51.060;4.228;2023-03-23T07:37:07;3.85;;;1.17;;
5014;SDS011;2526;51.060;4.228;2023-03-23T07:39:33;2.38;;;0.63;;
5014;SDS011;2526;51.060;4.228;2023-03-23T07:41:59;0.82;;;0.38;;
5014;SDS011;2526;51.060;4.228;2023-03-23T07:44:25;3.47;;;0.88;;
5014;SDS011;2526;51.060;4.228;2023-03-23T07:46:51;1.35;;;0.38;;
5014;SDS011;2526;51.060;4.228;2023-03-23T07:49:17;3.33;;;0.40;;
5014;SDS011;2526;51.060;4.228;2023-03-23T07:51:43;5.53;;;0.55;;
5014;SDS011;2526;51.060;4.228;2023-03-23T07:54:08;4.53;;;0.47;;
5014;SDS011;2526;51.060;4.228;2023-03-23T07:56:34;1.83;;;0.50;;
5014;SDS011;2526;51.060;4.228;2023-03-23T07:59:00;5.20;;;0.65;;
5014;SDS011;2526;51.060;4.228;2023-03-23T08:01:26;6.22;;;0.65;;
5014;SDS011;2526;51.060;4.228;2023-03-23T08:03:51;2.92;;;0.88;;
5014;SDS011;2526;51.060;4.228;2023-03-23T08:06:20;1.75;;;0.60;;
5014;SDS011;2526;51.060;4.228;2023-03-23T08:08:46;1.65;;;0.43;;
5014;SDS011;2526;51.060;4.228;2023-03-23T08:11:12;1.45;;;0.82;;
5014;SDS011;2526;51.060;4.228;2023-03-23T08:13:38;1.08;;;0.60;;
5014;SDS011;2526;51.060;4.228;2023-03-23T08:16:04;1.27;;;0.30;;
5014;SDS011;2526;51.060;4.228;2023-03-23T08:18:30;0.55;;;0.55;;
5014;SDS011;2526;51.060;4.228;2023-03-23T08:20:57;0.93;;;0.77;;
5014;SDS011;2526;51.060;4.228;2023-03-23T08:23:22;5.90;;;0.82;;
5014;SDS011;2526;51.060;4.228;2023-03-23T08:25:48;1.23;;;0.70;;
5014;SDS011;2526;51.060;4.228;2023-03-23T08:28:14;3.85;;;1.08;;
5014;SDS011;2526;51.060;4.228;2023-03-23T08:30:40;1.60;;;0.82;;
5014;SDS011;2526;51.060;4.228;2023-03-23T08:33:06;0.60;;;0.60;;
5014;SDS011;2526;51.060;4.228;2023-03-23T08:35:31;0.77;;;0.70;;
5014;SDS011;2526;51.060;4.228;2023-03-23T08:37:57;1.25;;;0.45;;
5014;SDS011;2526;51.060;4.228;2023-03-23T08:40:23;1.63;;;0.68;;
5014;SDS011;2526;51.060;4.228;2023-03-23T08:42:50;1.45;;;0.75;;
5014;SDS011;2526;51.060;4.228;2023-03-23T08:45:17;3.10;;;0.77;;
5014;SDS011;2526;51.060;4.228;2023-03-23T08:47:43;2.25;;;0.98;;
5014;SDS011;2526;51.060;4.228;2023-03-23T08:50:13;4.00;;;0.70;;
5014;SDS011;2526;51.060;4.228;2023-03-23T08:52:39;0.45;;;0.30;;
5014;SDS011;2526;51.060;4.228;2023-03-23T08:55:05;1.52;;;0.52;;
5014;SDS011;2526;51.060;4.228;2023-03-23T08:57:34;4.97;;;0.70;;
5014;SDS011;2526;51.060;4.228;2023-03-23T08:59:59;4.22;;;0.68;;
5014;SDS011;2526;51.060;4.228;2023-03-23T09:04:59;0.52;;;0.52;;
5014;SDS011;2526;51.060;4.228;2023-03-23T09:07:26;2.00;;;0.52;;
5014;SDS011;2526;51.060;4.228;2023-03-23T09:09:52;0.65;;;0.32;;
5014;SDS011;2526;51.060;4.228;2023-03-23T09:12:18;2.55;;;0.65;;
5014;SDS011;2526;51.060;4.228;2023-03-23T09:14:43;4.13;;;0.95;;
5014;SDS011;2526;51.060;4.228;2023-03-23T09:17:09;7.22;;;1.45;;
5014;SDS011;2526;51.060;4.228;2023-03-23T09:19:35;1.13;;;0.75;;
5014;SDS011;2526;51.060;4.228;2023-03-23T09:22:01;10.80;;;1.23;;
5014;SDS011;2526;51.060;4.228;2023-03-23T09:24:27;1.88;;;0.98;;
5014;SDS011;2526;51.060;4.228;2023-03-23T09:26:52;1.25;;;0.77;;
5014;SDS011;2526;51.060;4.228;2023-03-23T09:29:18;8.95;;;1.70;;
5014;SDS011;2526;51.060;4.228;2023-03-23T09:31:44;8.35;;;1.02;;
5014;SDS011;2526;51.060;4.228;2023-03-23T09:34:12;5.00;;;0.50;;
5014;SDS011;2526;51.060;4.228;2023-03-23T09:36:37;7.15;;;1.40;;
5014;SDS011;2526;51.060;4.228;2023-03-23T09:39:07;3.88;;;0.85;;
5014;SDS011;2526;51.060;4.228;2023-03-23T09:49:23;10.82;;;0.95;;
5014;SDS011;2526;51.060;4.228;2023-03-23T09:51:51;3.00;;;0.90;;
5014;SDS011;2526;51.060;4.228;2023-03-23T09:54:20;9.98;;;1.42;;
5014;SDS011;2526;51.060;4.228;2023-03-23T09:56:46;3.22;;;1.27;;
5014;SDS011;2526;51.060;4.228;2023-03-23T09:59:14;1.50;;;1.00;;
5014;SDS011;2526;51.060;4.228;2023-03-23T10:01:46;4.63;;;0.80;;
5014;SDS011;2526;51.060;4.228;2023-03-23T10:06:37;6.30;;;1.10;;
5014;SDS011;2526;51.060;4.228;2023-03-23T10:09:04;2.92;;;1.23;;
5014;SDS011;2526;51.060;4.228;2023-03-23T10:11:40;1.13;;;0.75;;
5014;SDS011;2526;51.060;4.228;2023-03-23T10:14:13;1.90;;;0.63;;
5014;SDS011;2526;51.060;4.228;2023-03-23T10:21:59;0.47;;;0.38;;
5014;SDS011;2526;51.060;4.228;2023-03-23T10:24:30;6.57;;;1.10;;
5014;SDS011;2526;51.060;4.228;2023-03-23T10:29:28;2.47;;;0.98;;
5014;SDS011;2526;51.060;4.228;2023-03-23T10:32:14;6.60;;;1.48;;
5014;SDS011;2526;51.060;4.228;2023-03-23T10:37:14;4.82;;;1.02;;
5014;SDS011;2526;51.060;4.228;2023-03-23T10:40:03;5.07;;;2.40;;
5014;SDS011;2526;51.060;4.228;2023-03-23T10:42:35;2.38;;;1.02;;
5014;SDS011;2526;51.060;4.228;2023-03-23T10:45:12;10.15;;;1.23;;
5014;SDS011;2526;51.060;4.228;2023-03-23T10:47:42;5.15;;;1.15;;
5014;SDS011;2526;51.060;4.228;2023-03-23T10:50:13;2.05;;;1.20;;
5014;SDS011;2526;51.060;4.228;2023-03-23T10:52:43;3.03;;;1.30;;
5014;SDS011;2526;51.060;4.228;2023-03-23T10:55:11;1.58;;;1.02;;
5014;SDS011;2526;51.060;4.228;2023-03-23T10:57:38;7.40;;;1.25;;
5014;SDS011;2526;51.060;4.228;2023-03-23T11:02:41;4.43;;;0.88;;
5014;SDS011;2526;51.060;4.228;2023-03-23T11:05:18;4.93;;;1.35;;
5014;SDS011;2526;51.060;4.228;2023-03-23T11:07:48;7.32;;;1.55;;
5014;SDS011;2526;51.060;4.228;2023-03-23T11:10:22;2.75;;;1.42;;
5014;SDS011;2526;51.060;4.228;2023-03-23T11:12:49;1.90;;;1.20;;
5014;SDS011;2526;51.060;4.228;2023-03-23T11:15:21;3.17;;;1.48;;
5014;SDS011;2526;51.060;4.228;2023-03-23T11:18:04;6.68;;;2.00;;
5014;SDS011;2526;51.060;4.228;2023-03-23T11:20:35;5.82;;;1.42;;
5014;SDS011;2526;51.060;4.228;2023-03-23T11:23:01;2.65;;;1.25;;
5014;SDS011;2526;51.060;4.228;2023-03-23T11:25:32;5.65;;;1.58;;
5014;SDS011;2526;51.060;4.228;2023-03-23T11:27:59;9.10;;;1.55;;
5014;SDS011;2526;51.060;4.228;2023-03-23T11:30:26;3.08;;;1.30;;
5014;SDS011;2526;51.060;4.228;2023-03-23T11:32:53;2.28;;;1.50;;
5014;SDS011;2526;51.060;4.228;2023-03-23T11:35:20;6.63;;;1.45;;
5014;SDS011;2526;51.060;4.228;2023-03-23T11:37:48;11.20;;;1.30;;
5014;SDS011;2526;51.060;4.228;2023-03-23T11:42:56;5.75;;;1.63;;
5014;SDS011;2526;51.060;4.228;2023-03-23T11:45:24;13.95;;;2.63;;
5014;SDS011;2526;51.060;4.228;2023-03-23T11:47:56;7.90;;;1.50;;
5014;SDS011;2526;51.060;4.228;2023-03-23T11:50:26;9.15;;;2.45;;
5014;SDS011;2526;51.060;4.228;2023-03-23T11:53:06;7.32;;;1.92;;
5014;SDS011;2526;51.060;4.228;2023-03-23T11:55:51;2.38;;;1.35;;
5014;SDS011;2526;51.060;4.228;2023-03-23T11:58:20;12.60;;;1.75;;
5014;SDS011;2526;51.060;4.228;2023-03-23T12:00:49;13.63;;;2.60;;
5014;SDS011;2526;51.060;4.228;2023-03-23T12:03:16;2.30;;;1.75;;
5014;SDS011;2526;51.060;4.228;2023-03-23T12:16:00;4.30;;;2.85;;
5014;SDS011;2526;51.060;4.228;2023-03-23T12:23:54;9.35;;;1.92;;
5014;SDS011;2526;51.060;4.228;2023-03-23T12:29:04;7.50;;;1.75;;
5014;SDS011;2526;51.060;4.228;2023-03-23T12:31:47;3.70;;;1.00;;
5014;SDS011;2526;51.060;4.228;2023-03-23T12:37:04;8.68;;;1.80;;
5014;SDS011;2526;51.060;4.228;2023-03-23T12:44:43;6.28;;;1.27;;
5014;SDS011;2526;51.060;4.228;2023-03-23T12:47:14;8.15;;;1.27;;
5014;SDS011;2526;51.060;4.228;2023-03-23T12:52:28;8.27;;;2.30;;
5014;SDS011;2526;51.060;4.228;2023-03-23T12:54:59;4.68;;;1.38;;
5014;SDS011;2526;51.060;4.228;2023-03-23T12:57:34;3.95;;;1.23;;
5014;SDS011;2526;51.060;4.228;2023-03-23T13:00:34;4.78;;;1.33;;
5014;SDS011;2526;51.060;4.228;2023-03-23T13:07:52;6.93;;;1.67;;
5014;SDS011;2526;51.060;4.228;2023-03-23T13:10:22;3.85;;;1.45;;
5014;SDS011;2526;51.060;4.228;2023-03-23T13:12:49;2.17;;;1.20;;
5014;SDS011;2526;51.060;4.228;2023-03-23T13:15:34;3.47;;;1.40;;
5014;SDS011;2526;51.060;4.228;2023-03-23T13:18:12;7.43;;;1.67;;
5014;SDS011;2526;51.060;4.228;2023-03-23T13:21:24;3.80;;;0.80;;
5014;SDS011;2526;51.060;4.228;2023-03-23T13:23:35;4.85;;;1.85;;
5014;SDS011;2526;51.060;4.228;2023-03-23T13:26:03;4.70;;;0.95;;
5014;SDS011;2526;51.060;4.228;2023-03-23T13:28:32;3.28;;;0.93;;
5014;SDS011;2526;51.060;4.228;2023-03-23T13:33:38;8.65;;;1.20;;
5014;SDS011;2526;51.060;4.228;2023-03-23T13:36:07;2.80;;;0.95;;
5014;SDS011;2526;51.060;4.228;2023-03-23T13:38:34;8.55;;;1.63;;
5014;SDS011;2526;51.060;4.228;2023-03-23T13:41:10;5.90;;;1.75;;
5014;SDS011;2526;51.060;4.228;2023-03-23T13:43:37;9.18;;;1.70;;
5014;SDS011;2526;51.060;4.228;2023-03-23T13:48:45;3.45;;;1.55;;
5014;SDS011;2526;51.060;4.228;2023-03-23T13:53:48;11.70;;;1.60;;
5014;SDS011;2526;51.060;4.228;2023-03-23T13:56:22;6.93;;;1.58;;
5014;SDS011;2526;51.060;4.228;2023-03-23T13:59:05;6.25;;;1.95;;
5014;SDS011;2526;51.060;4.228;2023-03-23T14:01:32;1.65;;;1.13;;
5014;SDS011;2526;51.060;4.228;2023-03-23T14:03:59;4.88;;;1.20;;
5014;SDS011;2526;51.060;4.228;2023-03-23T14:06:26;2.10;;;0.93;;
5014;SDS011;2526;51.060;4.228;2023-03-23T14:09:02;7.13;;;1.00;;
5014;SDS011;2526;51.060;4.228;2023-03-23T14:11:30;5.82;;;0.60;;
5014;SDS011;2526;51.060;4.228;2023-03-23T14:14:01;3.15;;;0.90;;
5014;SDS011;2526;51.060;4.228;2023-03-23T14:18:57;4.35;;;1.80;;
5014;SDS011;2526;51.060;4.228;2023-03-23T14:21:31;8.77;;;2.03;;
5014;SDS011;2526;51.060;4.228;2023-03-23T14:24:02;6.78;;;1.15;;
5014;SDS011;2526;51.060;4.228;2023-03-23T14:26:29;4.93;;;1.17;;
5014;SDS011;2526;51.060;4.228;2023-03-23T14:28:54;1.40;;;1.20;;
5014;SDS011;2526;51.060;4.228;2023-03-23T14:31:21;9.55;;;2.22;;
5014;SDS011;2526;51.060;4.228;2023-03-23T14:33:47;4.13;;;1.98;;
5014;SDS011;2526;51.060;4.228;2023-03-23T14:36:14;7.60;;;1.70;;
5014;SDS011;2526;51.060;4.228;2023-03-23T14:38:40;2.80;;;0.90;;
5014;SDS011;2526;51.060;4.228;2023-03-23T14:41:05;12.20;;;1.30;;
5014;SDS011;2526;51.060;4.228;2023-03-23T14:43:32;0.93;;;0.80;;
5014;SDS011;2526;51.060;4.228;2023-03-23T14:46:00;7.30;;;1.65;;
5014;SDS011;2526;51.060;4.228;2023-03-23T14:48:26;9.10;;;1.90;;
5014;SDS011;2526;51.060;4.228;2023-03-23T14:50:55;13.63;;;2.55;;
5014;SDS011;2526;51.060;4.228;2023-03-23T14:53:28;2.30;;;1.52;;
5014;SDS011;2526;51.060;4.228;2023-03-23T14:55:54;3.88;;;1.17;;
5014;SDS011;2526;51.060;4.228;2023-03-23T14:58:21;2.17;;;1.00;;
5014;SDS011;2526;51.060;4.228;2023-03-23T15:03:16;6.22;;;1.63;;
5014;SDS011;2526;51.060;4.228;2023-03-23T15:05:50;3.00;;;1.40;;
5014;SDS011;2526;51.060;4.228;2023-03-23T15:08:19;3.75;;;1.48;;
5014;SDS011;2526;51.060;4.228;2023-03-23T15:13:37;4.10;;;1.25;;
5014;SDS011;2526;51.060;4.228;2023-03-23T15:16:12;4.18;;;1.35;;
5014;SDS011;2526;51.060;4.228;2023-03-23T15:18:39;3.90;;;1.55;;
5014;SDS011;2526;51.060;4.228;2023-03-23T15:21:22;3.83;;;1.60;;
5014;SDS011;2526;51.060;4.228;2023-03-23T15:23:48;11.13;;;2.90;;
5014;SDS011;2526;51.060;4.228;2023-03-23T15:28:49;5.78;;;1.55;;
5014;SDS011;2526;51.060;4.228;2023-03-23T15:31:14;4.95;;;1.65;;
5014;SDS011;2526;51.060;4.228;2023-03-23T15:33:40;5.43;;;2.25;;
5014;SDS011;2526;51.060;4.228;2023-03-23T15:36:15;12.10;;;1.95;;
5014;SDS011;2526;51.060;4.228;2023-03-23T15:38:42;5.18;;;1.75;;
5014;SDS011;2526;51.060;4.228;2023-03-23T15:41:20;10.23;;;1.92;;
5014;SDS011;2526;51.060;4.228;2023-03-23T15:43:51;8.35;;;2.60;;
5014;SDS011;2526;51.060;4.228;2023-03-23T15:46:19;8.95;;;2.20;;
5014;SDS011;2526;51.060;4.228;2023-03-23T15:48:46;9.75;;;2.17;;
5014;SDS011;2526;51.060;4.228;2023-03-23T15:51:12;2.97;;;1.40;;
5014;SDS011;2526;51.060;4.228;2023-03-23T15:53:38;7.32;;;1.80;;
5014;SDS011;2526;51.060;4.228;2023-03-23T15:56:04;7.72;;;1.45;;
5014;SDS011;2526;51.060;4.228;2023-03-23T15:58:31;9.52;;;2.13;;
5014;SDS011;2526;51.060;4.228;2023-03-23T16:00:57;17.13;;;1.85;;
5014;SDS011;2526;51.060;4.228;2023-03-23T16:03:27;8.60;;;1.70;;
5014;SDS011;2526;51.060;4.228;2023-03-23T16:05:54;3.28;;;1.35;;
5014;SDS011;2526;51.060;4.228;2023-03-23T16:08:22;11.02;;;1.83;;
5014;SDS011;2526;51.060;4.228;2023-03-23T16:10:48;3.08;;;1.92;;
5014;SDS011;2526;51.060;4.228;2023-03-23T16:13:13;16.25;;;2.28;;
5014;SDS011;2526;51.060;4.228;2023-03-23T16:15:39;18.63;;;2.50;;
5014;SDS011;2526;51.060;4.228;2023-03-23T16:18:04;8.60;;;2.38;;
5014;SDS011;2526;51.060;4.228;2023-03-23T16:20:30;5.20;;;1.60;;
5014;SDS011;2526;51.060;4.228;2023-03-23T16:22:57;4.00;;;1.67;;
5014;SDS011;2526;51.060;4.228;2023-03-23T16:25:23;9.02;;;1.23;;
5014;SDS011;2526;51.060;4.228;2023-03-23T16:27:48;6.60;;;2.40;;
5014;SDS011;2526;51.060;4.228;2023-03-23T16:32:46;10.45;;;2.25;;
5014;SDS011;2526;51.060;4.228;2023-03-23T16:35:13;6.38;;;1.67;;
5014;SDS011;2526;51.060;4.228;2023-03-23T16:37:43;8.38;;;1.83;;
5014;SDS011;2526;51.060;4.228;2023-03-23T16:40:09;5.03;;;1.10;;
5014;SDS011;2526;51.060;4.228;2023-03-23T16:42:36;12.27;;;3.03;;
5014;SDS011;2526;51.060;4.228;2023-03-23T16:45:02;12.20;;;2.92;;
5014;SDS011;2526;51.060;4.228;2023-03-23T16:47:30;2.10;;;1.85;;
5014;SDS011;2526;51.060;4.228;2023-03-23T16:49:56;1.65;;;1.30;;
5014;SDS011;2526;51.060;4.228;2023-03-23T16:52:21;9.88;;;3.28;;
5014;SDS011;2526;51.060;4.228;2023-03-23T16:54:47;6.72;;;2.35;;